Time,TemperatureF,DewpointF,PressureIn,WindDirection,WindDirectionDegrees,WindSpeedMPH,WindSpeedGustMPH,Humidity,HourlyPrecipIn,Conditions,Clouds,dailyrainin,SoftwareType,DateUTC
2013-03-14 00:09:00,23.0,12.0,30.32,WNW,285,3.0,5.0,63,0.00,,,0.00,weatherlink.com 1.10,2013-03-14 05:09:00,
2013-03-14 00:24:00,22.5,12.0,30.31,West,264,2.0,3.0,64,0.00,,,0.00,weatherlink.com 1.10,2013-03-14 05:24:00,
2013-03-14 00:39:00,22.1,12.0,30.31,West,266,1.0,4.0,65,0.00,,,0.00,weatherlink.com 1.10,2013-03-14 05:39:00,
2013-03-14 00:54:00,21.9,12.0,30.31,West,266,0.0,2.0,65,0.00,,,0.00,weatherlink.com 1.10,2013-03-14 05:54:00,
2013-03-14 01:09:00,21.4,12.0,30.31,West,270,2.0,4.0,66,0.00,,,0.00,weatherlink.com 1.10,2013-03-14 06:09:00,
2013-03-14 01:24:00,21.3,12.0,30.31,West,269,1.0,3.0,67,0.00,,,0.00,weatherlink.com 1.10,2013-03-14 06:24:00,
2013-03-14 01:39:00,21.2,12.0,30.31,West,259,1.0,4.0,67,0.00,,,0.00,weatherlink.com 1.10,2013-03-14 06:39:00,
2013-03-14 01:54:00,21.0,12.0,30.31,West,265,1.0,3.0,68,0.00,,,0.00,weatherlink.com 1.10,2013-03-14 06:54:00,
2013-03-14 02:09:00,20.7,12.0,30.31,West,263,2.0,3.0,69,0.00,,,0.00,weatherlink.com 1.10,2013-03-14 07:09:00,
2013-03-14 02:24:00,20.5,12.0,30.31,WSW,250,1.0,4.0,70,0.00,,,0.00,weatherlink.com 1.10,2013-03-14 07:24:00,
2013-03-14 02:39:00,20.5,12.0,30.30,WSW,241,0.0,3.0,70,0.00,,,0.00,weatherlink.com 1.10,2013-03-14 07:39:00,
2013-03-14 02:54:00,20.1,12.0,30.30,WSW,241,0.0,2.0,72,0.00,,,0.00,weatherlink.com 1.10,2013-03-14 07:54:00,
2013-03-14 03:09:00,19.7,12.0,30.30,WSW,243,1.0,2.0,73,0.00,,,0.00,weatherlink.com 1.10,2013-03-14 08:09:00,
2013-03-14 03:24:00,19.2,12.0,30.30,WSW,243,0.0,2.0,74,0.00,,,0.00,weatherlink.com 1.10,2013-03-14 08:24:00,
2013-03-14 03:39:00,18.5,12.0,30.29,WSW,243,1.0,2.0,75,0.00,,,0.00,weatherlink.com 1.10,2013-03-14 08:39:00,
2013-03-14 03:54:00,18.5,12.0,30.29,WSW,243,0.0,1.0,76,0.00,,,0.00,weatherlink.com 1.10,2013-03-14 08:54:00,
2013-03-14 04:09:00,17.9,12.0,30.29,WSW,243,1.0,2.0,77,0.00,,,0.00,weatherlink.com 1.10,2013-03-14 09:09:00,
2013-03-14 04:24:00,17.5,12.0,30.28,WSW,246,0.0,3.0,79,0.00,,,0.00,weatherlink.com 1.10,2013-03-14 09:24:00,
2013-03-14 04:39:00,17.3,12.0,30.28,WSW,246,1.0,2.0,80,0.00,,,0.00,weatherlink.com 1.10,2013-03-14 09:39:00,
2013-03-14 04:54:00,17.1,12.0,30.28,WSW,246,0.0,0.0,80,0.00,,,0.00,weatherlink.com 1.10,2013-03-14 09:54:00,
2013-03-14 05:09:00,17.0,12.0,30.27,WSW,246,0.0,1.0,81,0.00,,,0.00,weatherlink.com 1.10,2013-03-14 10:09:00,
2013-03-14 05:24:00,17.4,13.0,30.27,WSW,246,0.0,0.0,82,0.00,,,0.00,weatherlink.com 1.10,2013-03-14 10:24:00,
2013-03-14 05:39:00,17.2,13.0,30.27,WSW,245,1.0,2.0,82,0.00,,,0.00,weatherlink.com 1.10,2013-03-14 10:39:00,
2013-03-14 05:54:00,17.0,13.0,30.28,SSW,208,4.0,4.0,84,0.00,,,0.00,weatherlink.com 1.10,2013-03-14 10:54:00,
2013-03-14 06:09:00,16.9,13.0,30.28,SSW,207,2.0,2.0,85,0.00,,,0.00,weatherlink.com 1.10,2013-03-14 11:09:00,
2013-03-14 06:24:00,16.9,13.0,30.28,SSW,213,0.0,4.0,86,0.00,,,0.00,weatherlink.com 1.10,2013-03-14 11:24:00,
2013-03-14 06:39:00,16.6,13.0,30.28,SSW,213,1.0,2.0,86,0.00,,,0.00,weatherlink.com 1.10,2013-03-14 11:39:00,
2013-03-14 06:54:00,16.4,13.0,30.28,SSW,213,0.0,1.0,87,0.00,,,0.00,weatherlink.com 1.10,2013-03-14 11:54:00,
2013-03-14 07:09:00,16.2,13.0,30.27,SSW,213,1.0,1.0,87,0.00,,,0.00,weatherlink.com 1.10,2013-03-14 12:09:00,
2013-03-14 07:24:00,16.2,13.0,30.27,SSW,213,1.0,3.0,87,0.00,,,0.00,weatherlink.com 1.10,2013-03-14 12:24:00,
2013-03-14 07:39:00,16.5,13.0,30.27,SSW,213,2.0,2.0,87,0.00,,,0.00,weatherlink.com 1.10,2013-03-14 12:39:00,
2013-03-14 07:54:00,17.3,14.0,30.27,SSW,193,1.0,4.0,86,0.00,,,0.00,weatherlink.com 1.10,2013-03-14 12:54:00,
2013-03-14 08:09:00,18.0,14.0,30.27,SSW,193,0.0,3.0,84,0.00,,,0.00,weatherlink.com 1.10,2013-03-14 13:09:00,
2013-03-14 08:24:00,18.8,15.0,30.27,South,185,2.0,3.0,83,0.00,,,0.00,weatherlink.com 1.10,2013-03-14 13:24:00,
2013-03-14 08:39:00,19.7,15.0,30.27,South,182,0.0,3.0,81,0.00,,,0.00,weatherlink.com 1.10,2013-03-14 13:39:00,
2013-03-14 08:55:00,21.2,16.0,30.27,South,182,1.0,3.0,80,0.00,,,0.00,weatherlink.com 1.10,2013-03-14 13:55:00,
2013-03-14 09:10:00,22.5,17.0,30.27,South,182,1.0,3.0,78,0.00,,,0.00,weatherlink.com 1.10,2013-03-14 14:10:00,
2013-03-14 09:25:00,23.4,17.0,30.27,ESE,112,1.0,2.0,76,0.00,,,0.00,weatherlink.com 1.10,2013-03-14 14:25:00,
2013-03-14 09:40:00,24.2,17.0,30.27,SSE,157,1.0,3.0,74,0.00,,,0.00,weatherlink.com 1.10,2013-03-14 14:40:00,
2013-03-14 09:55:00,24.9,17.0,30.27,SSE,159,2.0,3.0,72,0.00,,,0.00,weatherlink.com 1.10,2013-03-14 14:55:00,
2013-03-14 10:10:00,25.6,17.0,30.28,SSE,162,2.0,3.0,70,0.00,,,0.00,weatherlink.com 1.10,2013-03-14 15:10:00,
2013-03-14 10:25:00,26.2,17.0,30.27,South,178,2.0,3.0,68,0.00,,,0.00,weatherlink.com 1.10,2013-03-14 15:25:00,
2013-03-14 10:40:00,27.0,17.0,30.26,SE,126,1.0,4.0,67,0.00,,,0.00,weatherlink.com 1.10,2013-03-14 15:40:00,
2013-03-14 10:55:00,27.7,18.0,30.26,SSE,148,1.0,5.0,66,0.00,,,0.00,weatherlink.com 1.10,2013-03-14 15:55:00,
2013-03-14 11:10:00,28.2,17.0,30.26,South,187,8.0,8.0,63,0.00,,,0.00,weatherlink.com 1.10,2013-03-14 16:10:00,
2013-03-14 11:25:00,28.4,18.0,30.25,South,182,4.0,6.0,64,0.00,,,0.00,weatherlink.com 1.10,2013-03-14 16:25:00,
2013-03-14 11:40:00,28.8,18.0,30.23,South,182,7.0,9.0,63,0.00,,,0.00,weatherlink.com 1.10,2013-03-14 16:40:00,
2013-03-14 11:55:00,29.4,18.0,30.22,SSE,155,6.0,8.0,63,0.00,,,0.00,weatherlink.com 1.10,2013-03-14 16:55:00,
2013-03-14 12:10:00,30.0,19.0,30.22,SSW,194,7.0,10.0,65,0.00,,,0.00,weatherlink.com 1.10,2013-03-14 17:10:00,
2013-03-14 12:25:00,30.6,20.0,30.23,South,178,2.0,8.0,66,0.00,,,0.00,weatherlink.com 1.10,2013-03-14 17:25:00,
2013-03-14 12:40:00,31.1,21.0,30.22,SSW,196,4.0,7.0,66,0.00,,,0.00,weatherlink.com 1.10,2013-03-14 17:40:00,
2013-03-14 12:55:00,31.9,22.0,30.22,SW,227,0.0,6.0,67,0.00,,,0.00,weatherlink.com 1.10,2013-03-14 17:55:00,
2013-03-14 13:10:00,32.8,23.0,30.21,SW,216,6.0,8.0,66,0.00,,,0.00,weatherlink.com 1.10,2013-03-14 18:10:00,
2013-03-14 13:25:00,32.8,24.0,30.20,SSW,198,2.0,6.0,71,0.00,,,0.00,weatherlink.com 1.10,2013-03-14 18:25:00,
2013-03-14 13:40:00,32.4,25.0,30.19,SW,232,3.0,12.0,73,0.01,,,0.01,weatherlink.com 1.10,2013-03-14 18:40:00,
2013-03-14 13:55:00,33.6,26.0,30.18,SSW,207,3.0,7.0,73,0.01,,,0.01,weatherlink.com 1.10,2013-03-14 18:55:00,
2013-03-14 14:11:00,34.4,27.0,30.16,SSW,202,3.0,7.0,74,0.01,,,0.01,weatherlink.com 1.10,2013-03-14 19:11:00,
2013-03-14 14:26:00,35.6,27.0,30.16,SSW,192,6.0,7.0,71,0.01,,,0.01,weatherlink.com 1.10,2013-03-14 19:26:00,
2013-03-14 14:56:00,36.4,27.0,30.17,West,273,2.0,6.0,69,0.00,,,0.01,weatherlink.com 1.10,2013-03-14 19:56:00,
2013-03-14 15:11:00,36.7,28.0,30.18,NNW,333,3.0,9.0,71,0.00,,,0.01,weatherlink.com 1.10,2013-03-14 20:11:00,
2013-03-14 15:26:00,36.3,28.0,30.20,WNW,294,5.0,7.0,71,0.00,,,0.01,weatherlink.com 1.10,2013-03-14 20:26:00,
2013-03-14 15:41:00,35.6,28.0,30.20,South,178,0.0,7.0,73,0.00,,,0.01,weatherlink.com 1.10,2013-03-14 20:41:00,
2013-03-14 15:56:00,35.7,28.0,30.18,WSW,247,2.0,2.0,73,0.00,,,0.01,weatherlink.com 1.10,2013-03-14 20:56:00,
2013-03-14 16:26:00,34.9,27.0,30.15,South,183,4.0,8.0,74,0.00,,,0.01,weatherlink.com 1.10,2013-03-14 21:26:00,
2013-03-14 16:41:00,35.3,28.0,30.15,SSE,166,4.0,10.0,74,0.00,,,0.01,weatherlink.com 1.10,2013-03-14 21:41:00,
2013-03-14 16:56:00,36.4,29.0,30.14,South,178,7.0,7.0,74,0.00,,,0.01,weatherlink.com 1.10,2013-03-14 21:56:00,
2013-03-14 17:11:00,37.2,29.0,30.14,SW,219,2.0,8.0,73,0.00,,,0.01,weatherlink.com 1.10,2013-03-14 22:11:00,
2013-03-14 17:41:00,37.6,29.0,30.14,SW,224,8.0,11.0,71,0.00,,,0.01,weatherlink.com 1.10,2013-03-14 22:41:00,
2013-03-14 17:56:00,36.7,29.0,30.13,SSW,211,4.0,11.0,73,0.00,,,0.01,weatherlink.com 1.10,2013-03-14 22:56:00,
2013-03-14 18:11:00,36.2,29.0,30.13,SSW,211,7.0,11.0,74,0.00,,,0.01,weatherlink.com 1.10,2013-03-14 23:11:00,
2013-03-14 18:26:00,36.1,29.0,30.13,SW,231,4.0,7.0,75,0.00,,,0.01,weatherlink.com 1.10,2013-03-14 23:26:00,
2013-03-14 18:41:00,35.9,29.0,30.13,South,173,5.0,8.0,75,0.00,,,0.01,weatherlink.com 1.10,2013-03-14 23:41:00,
2013-03-14 18:56:00,35.5,29.0,30.13,SW,219,4.0,5.0,76,0.00,,,0.01,weatherlink.com 1.10,2013-03-14 23:56:00,
2013-03-14 19:11:00,35.2,29.0,30.11,SSW,210,4.0,7.0,77,0.00,,,0.01,weatherlink.com 1.10,2013-03-15 00:11:00,
2013-03-14 19:41:00,34.6,29.0,30.09,WSW,251,1.0,7.0,79,0.00,,,0.01,weatherlink.com 1.10,2013-03-15 00:41:00,
2013-03-14 19:56:00,34.7,29.0,30.09,SW,222,2.0,6.0,80,0.00,,,0.01,weatherlink.com 1.10,2013-03-15 00:56:00,
2013-03-14 20:11:00,34.5,29.0,30.09,West,262,2.0,5.0,80,0.00,,,0.01,weatherlink.com 1.10,2013-03-15 01:11:00,
2013-03-14 20:26:00,34.0,29.0,30.09,WSW,255,0.0,4.0,81,0.00,,,0.01,weatherlink.com 1.10,2013-03-15 01:26:00,
2013-03-14 20:41:00,33.8,29.0,30.09,SW,217,1.0,6.0,81,0.00,,,0.01,weatherlink.com 1.10,2013-03-15 01:41:00,
2013-03-14 20:56:00,33.5,29.0,30.08,SW,222,1.0,7.0,82,0.00,,,0.01,weatherlink.com 1.10,2013-03-15 01:56:00,
2013-03-14 21:11:00,33.1,29.0,30.08,West,260,2.0,7.0,83,0.00,,,0.01,weatherlink.com 1.10,2013-03-15 02:11:00,
2013-03-14 21:27:00,32.8,28.0,30.07,WSW,255,3.0,6.0,83,0.00,,,0.01,weatherlink.com 1.10,2013-03-15 02:27:00,
2013-03-14 21:42:00,32.5,28.0,30.07,WSW,244,5.0,7.0,84,0.00,,,0.01,weatherlink.com 1.10,2013-03-15 02:42:00,
2013-03-14 21:57:00,32.3,28.0,30.07,South,190,1.0,7.0,85,0.00,,,0.01,weatherlink.com 1.10,2013-03-15 02:57:00,
2013-03-14 22:12:00,32.0,28.0,30.06,West,273,1.0,6.0,85,0.00,,,0.01,weatherlink.com 1.10,2013-03-15 03:12:00,
2013-03-14 22:27:00,31.7,28.0,30.07,SW,214,0.0,7.0,86,0.00,,,0.01,weatherlink.com 1.10,2013-03-15 03:27:00,
2013-03-14 22:42:00,31.5,28.0,30.06,West,273,5.0,6.0,86,0.00,,,0.01,weatherlink.com 1.10,2013-03-15 03:42:00,
2013-03-14 22:57:00,31.4,28.0,30.05,SW,229,1.0,7.0,87,0.00,,,0.01,weatherlink.com 1.10,2013-03-15 03:57:00,
2013-03-14 23:12:00,31.1,28.0,30.05,SW,223,1.0,5.0,87,0.00,,,0.01,weatherlink.com 1.10,2013-03-15 04:12:00,
2013-03-14 23:27:00,30.9,28.0,30.05,WSW,240,2.0,8.0,87,0.00,,,0.01,weatherlink.com 1.10,2013-03-15 04:27:00,
2013-03-14 23:42:00,30.5,27.0,30.05,WSW,250,0.0,4.0,87,0.00,,,0.01,weatherlink.com 1.10,2013-03-15 04:42:00,
2013-03-14 23:57:00,30.1,27.0,30.04,WNW,300,2.0,4.0,88,0.00,,,0.01,weatherlink.com 1.10,2013-03-15 04:57:00,